首页
METAR-TAF:

METAR-TAF

机场 :

赤塔, 俄罗斯

赤塔機場

纬度: 52-05N, 经度: 113-29E, 海拔: 685米

当前天气观测

该预报发布于23分钟前的22:00 UTC
风速6节,风向北转西北
温度 0°C
湿度 64%
气压 1019 hPa
能见度10公里或以上

METAR: UIAA 252200Z 34003MPS 9999 NSC M00/M06 Q1019 R29/CLRD70 NOSIG RMK QFE705/0941

时间: 07:23 (22:23 UTC)

预报

该预报发布于2小时和23分钟前的20:00 UTC
预报有效从25日的 21点(UTC)到 26日的 21点(UTC)
风速6节,风向东南,有时为17节阵风
能见度10公里或以上
短暂存在
从 26日的 10点(UTC)到 26日的 18点(UTC)
风速10节,风向西

TAF: UIAA 252000Z 2521/2621 14003G09MPS 9999 NSC TEMPO 2610/2618 26005MPS

超过4000个机场的气象观测和天气预报(METAR&TAF报告)。

可查询的气象台以黄色和红色小点在地图上表示。

将鼠标移到小点上方,可查看气象台名称。

然后点击查看天气观测和预报。

如需切换地图:点击带黑十字的绿色按钮放大地图;点击带横线的绿色按钮缩小地图;或者点击绿色箭头查看邻近地区的地图。


METAR-TAF: